createdAt,value
2022-08-12T00:03:59.954Z,4.43
2022-08-12T00:09:25.831Z,4.55
2022-08-12T00:14:46.700Z,4.80
2022-08-12T00:20:07.409Z,4.70
2022-08-12T00:26:05.701Z,4.95
2022-08-12T00:31:11.074Z,4.22
2022-08-12T00:36:36.153Z,4.45
2022-08-12T00:41:57.783Z,4.47
2022-08-12T00:47:01.680Z,4.60
2022-08-12T00:52:11.784Z,4.17
2022-08-12T00:57:17.285Z,4.65
2022-08-12T01:02:26.696Z,4.85
2022-08-12T01:07:47.938Z,4.65
2022-08-12T01:12:50.873Z,6.00
2022-08-12T01:17:52.900Z,5.00
2022-08-12T01:23:15.304Z,5.00
2022-08-12T01:28:20.735Z,4.75
2022-08-12T01:33:25.394Z,5.10
2022-08-12T01:38:32.888Z,4.82
2022-08-12T01:43:35.084Z,4.22
2022-08-12T01:49:06.299Z,4.60
2022-08-12T01:54:14.103Z,4.50
2022-08-12T01:59:47.257Z,5.10
2022-08-12T02:05:22.190Z,4.43
2022-08-12T02:11:18.069Z,3.90
2022-08-12T02:16:32.003Z,4.65
2022-08-12T02:21:47.580Z,4.83
2022-08-12T02:26:50.343Z,4.55
2022-08-12T02:31:53.758Z,4.93
2022-08-12T02:36:57.524Z,4.57
2022-08-12T02:42:06.927Z,4.82
2022-08-12T02:47:18.243Z,5.60
2022-08-12T02:52:32.769Z,5.10
2022-08-12T02:57:34.791Z,5.00
2022-08-12T03:02:40.135Z,5.45
2022-08-12T03:07:59.162Z,4.60
2022-08-12T03:13:04.065Z,5.22
2022-08-12T03:18:25.570Z,5.10
2022-08-12T03:23:31.361Z,5.03
2022-08-12T03:28:51.423Z,5.27
2022-08-12T03:34:02.003Z,5.05
2022-08-12T03:39:35.463Z,5.00
2022-08-12T03:45:02.911Z,5.13
2022-08-12T03:50:24.279Z,5.45
2022-08-12T03:55:44.911Z,5.30
2022-08-12T04:00:47.957Z,4.85
2022-08-12T04:05:54.393Z,5.18
2022-08-12T04:11:17.193Z,5.57
2022-08-12T04:16:20.734Z,5.18
2022-08-12T04:21:22.502Z,5.45
2022-08-12T04:26:24.225Z,5.85
2022-08-12T04:31:39.932Z,5.85
2022-08-12T04:36:43.924Z,6.20
2022-08-12T04:41:58.166Z,5.88
2022-08-12T04:47:00.724Z,6.13
2022-08-12T04:52:03.360Z,6.10
2022-08-12T04:57:09.567Z,5.70
2022-08-12T05:02:16.910Z,6.25
2022-08-12T05:07:24.058Z,5.75
2022-08-12T05:12:32.857Z,5.35
2022-08-12T05:17:34.899Z,5.93
2022-08-12T05:22:40.549Z,6.18
2022-08-12T05:27:55.494Z,5.80
2022-08-12T05:33:05.899Z,5.03
2022-08-12T05:38:27.238Z,5.30
2022-08-12T05:43:29.177Z,6.15
2022-08-12T05:48:32.993Z,5.63
2022-08-12T05:53:34.723Z,5.40
2022-08-12T05:58:37.585Z,5.60
2022-08-12T06:03:39.565Z,5.65
2022-08-12T06:08:44.968Z,5.63
2022-08-12T06:13:53.980Z,5.43
2022-08-12T06:18:56.428Z,6.03
2022-08-12T06:23:58.325Z,5.75
2022-08-12T06:29:00.704Z,5.95
2022-08-12T06:35:25.620Z,5.50
2022-08-12T06:39:24.717Z,5.55
2022-08-12T06:44:26.533Z,4.45
2022-08-12T06:49:36.173Z,4.75
2022-08-12T06:54:37.960Z,4.78
2022-08-12T06:59:40.932Z,5.18
2022-08-12T07:04:43.379Z,4.65
2022-08-12T07:10:03.904Z,4.65
2022-08-12T07:15:07.239Z,4.60
2022-08-12T07:20:20.245Z,4.10
2022-08-12T07:25:40.831Z,3.83
2022-08-12T07:30:44.938Z,3.35
2022-08-12T07:35:48.299Z,3.80
2022-08-12T07:40:52.504Z,3.57
2022-08-12T07:45:55.208Z,3.17
2022-08-12T07:50:56.979Z,3.47
2022-08-12T07:55:58.740Z,4.05
2022-08-12T08:01:01.277Z,3.80
2022-08-12T08:06:05.565Z,3.40
2022-08-12T08:11:39.160Z,3.00
2022-08-12T08:16:43.099Z,3.15
2022-08-12T08:21:45.412Z,2.65
2022-08-12T08:26:50.103Z,2.70
2022-08-12T08:32:00.137Z,2.50
2022-08-12T08:37:04.045Z,2.80
2022-08-12T08:42:28.277Z,2.55
2022-08-12T08:47:31.977Z,2.20
2022-08-12T08:52:40.597Z,2.57
2022-08-12T09:02:59.129Z,2.70
2022-08-12T09:08:11.966Z,2.47
2022-08-12T09:18:52.559Z,2.10
2022-08-12T09:24:06.124Z,2.15
2022-08-12T09:29:12.103Z,1.88
2022-08-12T09:34:27.410Z,2.20
2022-08-12T09:40:05.845Z,2.00
2022-08-12T09:45:19.213Z,2.22
2022-08-12T09:50:25.125Z,2.30
2022-08-12T09:56:06.176Z,1.60
2022-08-12T10:00:52.800Z,1.70
2022-08-12T10:06:19.237Z,1.80
2022-08-12T10:12:10.890Z,1.95
2022-08-12T10:16:58.309Z,1.92
2022-08-12T10:22:01.605Z,1.65
2022-08-12T10:27:21.957Z,1.90
2022-08-12T10:32:45.464Z,2.30
2022-08-12T10:38:34.604Z,1.60
2022-08-12T10:43:27.840Z,1.80
2022-08-12T10:48:34.126Z,1.70
2022-08-12T10:53:43.888Z,1.55
2022-08-12T10:58:48.744Z,1.80
2022-08-12T11:04:20.369Z,1.50
2022-08-12T11:09:41.990Z,1.73
2022-08-12T11:14:49.188Z,1.90
2022-08-12T11:19:52.885Z,1.70
2022-08-12T11:24:55.398Z,1.85
2022-08-12T11:30:02.018Z,1.70
2022-08-12T11:35:11.685Z,1.70
2022-08-12T11:40:13.677Z,1.70
2022-08-12T11:45:16.420Z,1.70
2022-08-12T11:50:20.472Z,1.73
2022-08-12T11:55:23.134Z,1.80
2022-08-12T12:05:47.327Z,2.00
2022-08-12T12:10:50.509Z,1.75
2022-08-12T12:15:53.170Z,1.60
2022-08-12T12:20:58.217Z,1.80
2022-08-12T12:26:08.069Z,1.80
2022-08-12T12:31:14.816Z,1.90
2022-08-12T12:36:32.187Z,1.73
2022-08-12T12:42:45.341Z,1.60
2022-08-12T12:46:57.225Z,1.80
2022-08-12T12:52:18.824Z,1.38
2022-08-12T12:57:21.546Z,1.60
2022-08-12T13:02:40.469Z,1.40
2022-08-12T13:12:56.659Z,1.75
2022-08-12T13:18:05.095Z,1.60
2022-08-12T13:23:35.915Z,1.35
2022-08-12T13:28:31.717Z,1.35
2022-08-12T13:34:29.646Z,1.50
2022-08-12T13:38:57.429Z,1.67
2022-08-12T13:44:07.115Z,1.40
2022-08-12T13:49:17.334Z,1.30
2022-08-12T13:54:36.943Z,1.20
2022-08-12T13:59:48.717Z,1.60
2022-08-12T14:04:57.152Z,1.30
2022-08-12T14:10:17.500Z,1.90
2022-08-12T14:15:19.793Z,1.83
2022-08-12T14:20:37.856Z,1.73
2022-08-12T14:25:41.232Z,1.80
2022-08-12T14:30:59.659Z,2.00
2022-08-12T14:36:04.962Z,1.40
2022-08-12T14:41:18.400Z,1.70
2022-08-12T14:46:22.359Z,1.60
2022-08-12T14:52:55.867Z,1.70
2022-08-12T14:57:20.545Z,1.80
2022-08-12T15:02:14.581Z,1.60
2022-08-12T15:07:33.337Z,1.70
2022-08-12T15:12:40.552Z,1.60
2022-08-12T15:17:42.537Z,1.40
2022-08-12T15:22:53.675Z,1.63
2022-08-12T15:28:04.656Z,1.50
2022-08-12T15:33:24.186Z,1.30
2022-08-12T15:38:28.032Z,1.60
2022-08-12T15:43:52.078Z,1.45
2022-08-12T15:48:52.486Z,1.73
2022-08-12T15:54:30.807Z,1.40
2022-08-12T16:00:00.045Z,1.67
2022-08-12T16:04:59.950Z,1.77
2022-08-12T16:10:05.995Z,1.58
2022-08-12T16:15:11.356Z,1.63
2022-08-12T16:20:33.045Z,1.30
2022-08-12T16:26:02.994Z,1.40
2022-08-12T16:30:59.861Z,1.67
2022-08-12T16:36:11.215Z,2.10
2022-08-12T16:41:13.429Z,1.92
2022-08-12T16:46:31.532Z,1.60
2022-08-12T16:51:40.580Z,1.60
2022-08-12T16:56:55.437Z,1.65
2022-08-12T17:02:00.385Z,2.08
2022-08-12T17:07:02.644Z,1.98
2022-08-12T17:12:05.568Z,1.95
2022-08-12T17:17:26.136Z,1.60
2022-08-12T17:22:33.290Z,1.42
2022-08-12T17:27:40.485Z,1.50
2022-08-12T17:32:53.253Z,1.60
2022-08-12T17:38:02.048Z,1.55
2022-08-12T17:43:51.842Z,1.55
2022-08-12T17:48:34.774Z,1.90
2022-08-12T17:54:10.565Z,2.75
2022-08-12T17:59:07.410Z,2.75
2022-08-12T18:04:21.768Z,2.50
2022-08-12T18:09:32.240Z,2.55
2022-08-12T18:14:41.476Z,2.05
2022-08-12T18:20:05.252Z,1.90
2022-08-12T18:26:10.076Z,2.10
2022-08-12T18:30:33.558Z,2.20
2022-08-12T18:35:47.150Z,2.80
2022-08-12T18:41:21.117Z,2.97
2022-08-12T18:46:54.469Z,3.00
2022-08-12T18:52:02.230Z,2.95
2022-08-12T18:57:19.653Z,3.30
2022-08-12T19:02:36.358Z,3.42
2022-08-12T19:08:00.728Z,3.40
2022-08-12T19:13:43.664Z,3.42
2022-08-12T19:18:45.936Z,3.28
2022-08-12T19:24:08.338Z,3.50
2022-08-12T19:29:10.649Z,3.50
2022-08-12T19:34:42.037Z,3.80
2022-08-12T19:40:09.309Z,4.00
2022-08-12T19:45:05.063Z,3.60
2022-08-12T19:50:11.452Z,3.65
2022-08-12T19:55:19.857Z,3.45
2022-08-12T20:00:26.534Z,4.05
2022-08-12T20:06:04.471Z,4.15
2022-08-12T20:10:53.305Z,3.95
2022-08-12T20:15:59.930Z,3.72
2022-08-12T20:21:01.937Z,4.03
2022-08-12T20:26:09.423Z,4.15
2022-08-12T20:31:13.260Z,3.47
2022-08-12T20:36:42.255Z,3.65
2022-08-12T20:41:41.018Z,3.67
2022-08-12T20:46:42.702Z,3.80
2022-08-12T20:51:54.975Z,3.28
2022-08-12T20:56:57.886Z,3.10
2022-08-12T21:02:04.981Z,2.85
2022-08-12T21:07:10.403Z,2.28
2022-08-12T21:12:27.718Z,2.70
2022-08-12T21:17:33.870Z,3.88
2022-08-12T21:22:55.235Z,3.90
2022-08-12T21:27:58.932Z,4.45
2022-08-12T21:33:04.660Z,4.38
2022-08-12T21:38:12.439Z,4.07
2022-08-12T21:43:16.324Z,3.33
2022-08-12T21:48:24.332Z,3.25
2022-08-12T21:54:05.752Z,3.33
2022-08-12T21:58:49.020Z,2.97
2022-08-12T22:04:11.496Z,2.75
2022-08-12T22:09:16.990Z,2.80
2022-08-12T22:14:23.824Z,2.47
2022-08-12T22:19:26.898Z,2.95
2022-08-12T22:24:29.947Z,2.60
2022-08-12T22:29:50.874Z,2.43
2022-08-12T22:35:12.526Z,2.38
2022-08-12T22:40:24.121Z,2.20
2022-08-12T22:45:48.806Z,2.08
2022-08-12T22:51:00.660Z,1.80
2022-08-12T22:56:06.501Z,1.85
2022-08-12T23:01:11.083Z,1.63
2022-08-12T23:11:16.224Z,1.70
2022-08-12T23:16:28.085Z,2.13
2022-08-12T23:21:40.300Z,1.85
2022-08-12T23:27:11.751Z,1.85
2022-08-12T23:32:54.111Z,1.73
2022-08-12T23:37:47.757Z,1.90
2022-08-12T23:42:56.853Z,1.80
2022-08-12T23:48:00.385Z,1.60
2022-08-12T23:53:05.683Z,1.55
2022-08-12T23:58:22.993Z,1.40
